sensor_id;sensor_type;location;lat;lon;timestamp;P1;durP1;ratioP1;P2;durP2;ratioP2
44989;SDS011;30723;51.206;3.326;2022-07-03T00:01:44;2.45;;;1.20;;
44989;SDS011;30723;51.206;3.326;2022-07-03T00:04:10;4.80;;;1.08;;
44989;SDS011;30723;51.206;3.326;2022-07-03T00:06:37;3.63;;;1.10;;
44989;SDS011;30723;51.206;3.326;2022-07-03T00:09:04;3.35;;;1.20;;
44989;SDS011;30723;51.206;3.326;2022-07-03T00:11:32;3.67;;;1.30;;
44989;SDS011;30723;51.206;3.326;2022-07-03T00:13:59;3.72;;;1.42;;
44989;SDS011;30723;51.206;3.326;2022-07-03T00:16:25;5.68;;;1.00;;
44989;SDS011;30723;51.206;3.326;2022-07-03T00:18:51;1.58;;;1.20;;
44989;SDS011;30723;51.206;3.326;2022-07-03T00:21:24;2.55;;;1.23;;
44989;SDS011;30723;51.206;3.326;2022-07-03T00:24:26;2.05;;;1.17;;
44989;SDS011;30723;51.206;3.326;2022-07-03T00:27:23;4.80;;;1.10;;
44989;SDS011;30723;51.206;3.326;2022-07-03T00:29:51;1.83;;;0.80;;
44989;SDS011;30723;51.206;3.326;2022-07-03T00:32:24;2.75;;;1.08;;
44989;SDS011;30723;51.206;3.326;2022-07-03T00:34:58;3.50;;;1.13;;
44989;SDS011;30723;51.206;3.326;2022-07-03T00:37:26;3.72;;;1.10;;
44989;SDS011;30723;51.206;3.326;2022-07-03T00:39:53;3.22;;;1.02;;
44989;SDS011;30723;51.206;3.326;2022-07-03T00:42:19;2.83;;;0.70;;
44989;SDS011;30723;51.206;3.326;2022-07-03T00:44:50;1.73;;;0.73;;
44989;SDS011;30723;51.206;3.326;2022-07-03T00:47:21;2.13;;;1.23;;
44989;SDS011;30723;51.206;3.326;2022-07-03T00:49:55;1.83;;;1.15;;
44989;SDS011;30723;51.206;3.326;2022-07-03T00:52:22;3.00;;;1.33;;
44989;SDS011;30723;51.206;3.326;2022-07-03T00:54:56;2.30;;;1.20;;
44989;SDS011;30723;51.206;3.326;2022-07-03T00:57:25;2.05;;;0.85;;
44989;SDS011;30723;51.206;3.326;2022-07-03T00:59:52;1.20;;;0.80;;
44989;SDS011;30723;51.206;3.326;2022-07-03T01:16:38;2.85;;;1.35;;
44989;SDS011;30723;51.206;3.326;2022-07-03T01:21:55;2.67;;;1.23;;
44989;SDS011;30723;51.206;3.326;2022-07-03T01:30:34;4.70;;;1.65;;
44989;SDS011;30723;51.206;3.326;2022-07-03T01:33:06;4.00;;;1.35;;
44989;SDS011;30723;51.206;3.326;2022-07-03T01:38:26;2.88;;;1.50;;
44989;SDS011;30723;51.206;3.326;2022-07-03T01:40:54;3.63;;;1.40;;
44989;SDS011;30723;51.206;3.326;2022-07-03T01:43:28;5.18;;;1.50;;
44989;SDS011;30723;51.206;3.326;2022-07-03T01:45:57;2.65;;;1.60;;
44989;SDS011;30723;51.206;3.326;2022-07-03T01:48:26;3.45;;;1.60;;
44989;SDS011;30723;51.206;3.326;2022-07-03T01:50:53;2.03;;;1.30;;
44989;SDS011;30723;51.206;3.326;2022-07-03T01:53:23;4.55;;;1.60;;
44989;SDS011;30723;51.206;3.326;2022-07-03T01:55:51;2.38;;;1.30;;
44989;SDS011;30723;51.206;3.326;2022-07-03T01:58:22;3.90;;;1.70;;
44989;SDS011;30723;51.206;3.326;2022-07-03T02:01:06;3.13;;;1.70;;
44989;SDS011;30723;51.206;3.326;2022-07-03T02:03:51;4.10;;;1.80;;
44989;SDS011;30723;51.206;3.326;2022-07-03T02:06:39;2.53;;;1.38;;
44989;SDS011;30723;51.206;3.326;2022-07-03T02:09:10;3.40;;;1.90;;
44989;SDS011;30723;51.206;3.326;2022-07-03T02:11:47;4.13;;;2.10;;
44989;SDS011;30723;51.206;3.326;2022-07-03T02:14:16;4.78;;;1.80;;
44989;SDS011;30723;51.206;3.326;2022-07-03T02:19:52;4.22;;;2.10;;
44989;SDS011;30723;51.206;3.326;2022-07-03T02:22:43;4.25;;;2.20;;
44989;SDS011;30723;51.206;3.326;2022-07-03T02:25:26;5.93;;;2.38;;
44989;SDS011;30723;51.206;3.326;2022-07-03T02:28:17;4.53;;;2.13;;
44989;SDS011;30723;51.206;3.326;2022-07-03T02:31:16;4.82;;;2.38;;
44989;SDS011;30723;51.206;3.326;2022-07-03T02:33:43;4.75;;;2.50;;
44989;SDS011;30723;51.206;3.326;2022-07-03T02:36:12;2.85;;;2.22;;
44989;SDS011;30723;51.206;3.326;2022-07-03T02:38:44;4.75;;;2.55;;
44989;SDS011;30723;51.206;3.326;2022-07-03T02:41:20;4.07;;;2.65;;
44989;SDS011;30723;51.206;3.326;2022-07-03T02:44:29;6.03;;;2.95;;
44989;SDS011;30723;51.206;3.326;2022-07-03T02:49:47;5.57;;;2.85;;
44989;SDS011;30723;51.206;3.326;2022-07-03T02:57:39;6.88;;;3.03;;
44989;SDS011;30723;51.206;3.326;2022-07-03T03:00:10;3.97;;;3.00;;
44989;SDS011;30723;51.206;3.326;2022-07-03T03:02:53;8.45;;;3.47;;
44989;SDS011;30723;51.206;3.326;2022-07-03T03:05:27;8.20;;;3.80;;
44989;SDS011;30723;51.206;3.326;2022-07-03T03:08:10;7.20;;;3.78;;
44989;SDS011;30723;51.206;3.326;2022-07-03T03:10:39;8.07;;;4.07;;
44989;SDS011;30723;51.206;3.326;2022-07-03T03:13:07;6.35;;;4.85;;
44989;SDS011;30723;51.206;3.326;2022-07-03T03:15:39;7.95;;;4.55;;
44989;SDS011;30723;51.206;3.326;2022-07-03T03:18:21;9.68;;;5.10;;
44989;SDS011;30723;51.206;3.326;2022-07-03T03:20:52;9.07;;;5.63;;
44989;SDS011;30723;51.206;3.326;2022-07-03T03:25:52;7.75;;;5.60;;
44989;SDS011;30723;51.206;3.326;2022-07-03T03:28:19;8.88;;;5.93;;
44989;SDS011;30723;51.206;3.326;2022-07-03T03:30:46;7.97;;;5.68;;
44989;SDS011;30723;51.206;3.326;2022-07-03T03:33:14;9.48;;;6.43;;
44989;SDS011;30723;51.206;3.326;2022-07-03T03:35:42;12.60;;;6.57;;
44989;SDS011;30723;51.206;3.326;2022-07-03T03:38:08;11.45;;;6.13;;
44989;SDS011;30723;51.206;3.326;2022-07-03T03:40:36;12.77;;;6.30;;
44989;SDS011;30723;51.206;3.326;2022-07-03T03:43:03;12.52;;;6.85;;
44989;SDS011;30723;51.206;3.326;2022-07-03T03:45:29;8.57;;;6.70;;
44989;SDS011;30723;51.206;3.326;2022-07-03T03:47:55;8.30;;;6.03;;
44989;SDS011;30723;51.206;3.326;2022-07-03T03:50:21;9.90;;;6.63;;
44989;SDS011;30723;51.206;3.326;2022-07-03T03:52:48;11.45;;;6.10;;
44989;SDS011;30723;51.206;3.326;2022-07-03T03:55:14;14.13;;;7.32;;
44989;SDS011;30723;51.206;3.326;2022-07-03T03:57:41;15.52;;;6.90;;
44989;SDS011;30723;51.206;3.326;2022-07-03T04:00:07;10.63;;;6.80;;
44989;SDS011;30723;51.206;3.326;2022-07-03T04:02:35;13.80;;;7.07;;
44989;SDS011;30723;51.206;3.326;2022-07-03T04:05:02;11.02;;;7.50;;
44989;SDS011;30723;51.206;3.326;2022-07-03T04:07:29;10.95;;;7.25;;
44989;SDS011;30723;51.206;3.326;2022-07-03T04:09:56;14.15;;;7.13;;
44989;SDS011;30723;51.206;3.326;2022-07-03T04:12:23;13.90;;;7.10;;
44989;SDS011;30723;51.206;3.326;2022-07-03T04:14:50;8.30;;;7.00;;
44989;SDS011;30723;51.206;3.326;2022-07-03T04:17:16;11.68;;;6.40;;
44989;SDS011;30723;51.206;3.326;2022-07-03T04:19:43;13.60;;;7.60;;
44989;SDS011;30723;51.206;3.326;2022-07-03T04:22:10;20.58;;;8.38;;
44989;SDS011;30723;51.206;3.326;2022-07-03T04:24:37;11.77;;;7.30;;
44989;SDS011;30723;51.206;3.326;2022-07-03T04:27:04;15.48;;;7.10;;
44989;SDS011;30723;51.206;3.326;2022-07-03T04:29:31;14.75;;;7.55;;
44989;SDS011;30723;51.206;3.326;2022-07-03T04:31:58;10.88;;;7.15;;
44989;SDS011;30723;51.206;3.326;2022-07-03T04:34:25;10.90;;;6.97;;
44989;SDS011;30723;51.206;3.326;2022-07-03T04:36:51;11.55;;;7.05;;
44989;SDS011;30723;51.206;3.326;2022-07-03T04:39:18;13.88;;;7.03;;
44989;SDS011;30723;51.206;3.326;2022-07-03T04:41:45;11.65;;;7.40;;
44989;SDS011;30723;51.206;3.326;2022-07-03T04:44:11;11.73;;;6.93;;
44989;SDS011;30723;51.206;3.326;2022-07-03T04:46:37;11.32;;;7.50;;
44989;SDS011;30723;51.206;3.326;2022-07-03T04:49:05;10.40;;;7.30;;
44989;SDS011;30723;51.206;3.326;2022-07-03T04:51:31;12.55;;;7.60;;
44989;SDS011;30723;51.206;3.326;2022-07-03T04:53:58;13.45;;;6.88;;
44989;SDS011;30723;51.206;3.326;2022-07-03T04:56:24;12.20;;;7.45;;
44989;SDS011;30723;51.206;3.326;2022-07-03T04:58:51;12.25;;;7.57;;
44989;SDS011;30723;51.206;3.326;2022-07-03T05:01:17;13.02;;;7.00;;
44989;SDS011;30723;51.206;3.326;2022-07-03T05:03:43;12.13;;;7.70;;
44989;SDS011;30723;51.206;3.326;2022-07-03T05:06:10;12.50;;;7.38;;
44989;SDS011;30723;51.206;3.326;2022-07-03T05:08:36;12.23;;;7.75;;
44989;SDS011;30723;51.206;3.326;2022-07-03T05:11:03;14.23;;;7.78;;
44989;SDS011;30723;51.206;3.326;2022-07-03T05:13:29;20.70;;;7.55;;
44989;SDS011;30723;51.206;3.326;2022-07-03T05:15:56;13.52;;;7.38;;
44989;SDS011;30723;51.206;3.326;2022-07-03T05:18:23;15.40;;;7.80;;
44989;SDS011;30723;51.206;3.326;2022-07-03T05:20:49;16.20;;;7.95;;
44989;SDS011;30723;51.206;3.326;2022-07-03T05:23:16;12.05;;;7.30;;
44989;SDS011;30723;51.206;3.326;2022-07-03T05:25:43;14.38;;;7.53;;
44989;SDS011;30723;51.206;3.326;2022-07-03T05:28:09;14.93;;;7.20;;
44989;SDS011;30723;51.206;3.326;2022-07-03T05:30:35;11.45;;;6.85;;
44989;SDS011;30723;51.206;3.326;2022-07-03T05:33:02;10.05;;;6.32;;
44989;SDS011;30723;51.206;3.326;2022-07-03T05:35:29;9.93;;;6.38;;
44989;SDS011;30723;51.206;3.326;2022-07-03T05:37:55;12.98;;;6.40;;
44989;SDS011;30723;51.206;3.326;2022-07-03T05:40:22;11.10;;;6.90;;
44989;SDS011;30723;51.206;3.326;2022-07-03T05:42:49;8.63;;;5.70;;
44989;SDS011;30723;51.206;3.326;2022-07-03T05:45:15;13.00;;;6.72;;
44989;SDS011;30723;51.206;3.326;2022-07-03T05:47:42;8.48;;;5.45;;
44989;SDS011;30723;51.206;3.326;2022-07-03T05:50:09;10.10;;;5.63;;
44989;SDS011;30723;51.206;3.326;2022-07-03T05:52:35;11.30;;;5.75;;
44989;SDS011;30723;51.206;3.326;2022-07-03T05:55:02;12.02;;;5.78;;
44989;SDS011;30723;51.206;3.326;2022-07-03T05:57:29;8.07;;;5.45;;
44989;SDS011;30723;51.206;3.326;2022-07-03T05:59:56;10.88;;;5.80;;
44989;SDS011;30723;51.206;3.326;2022-07-03T06:02:22;7.32;;;4.93;;
44989;SDS011;30723;51.206;3.326;2022-07-03T06:04:49;13.00;;;5.10;;
44989;SDS011;30723;51.206;3.326;2022-07-03T06:07:16;7.93;;;4.57;;
44989;SDS011;30723;51.206;3.326;2022-07-03T06:09:42;8.48;;;4.60;;
44989;SDS011;30723;51.206;3.326;2022-07-03T06:12:09;8.68;;;4.60;;
44989;SDS011;30723;51.206;3.326;2022-07-03T06:14:35;6.97;;;4.05;;
44989;SDS011;30723;51.206;3.326;2022-07-03T06:17:02;7.15;;;4.35;;
44989;SDS011;30723;51.206;3.326;2022-07-03T06:19:29;13.07;;;4.47;;
44989;SDS011;30723;51.206;3.326;2022-07-03T06:21:56;6.43;;;3.92;;
44989;SDS011;30723;51.206;3.326;2022-07-03T06:24:23;5.82;;;3.83;;
44989;SDS011;30723;51.206;3.326;2022-07-03T06:26:50;7.50;;;4.45;;
44989;SDS011;30723;51.206;3.326;2022-07-03T06:29:16;7.05;;;4.13;;
44989;SDS011;30723;51.206;3.326;2022-07-03T06:31:43;6.65;;;3.95;;
44989;SDS011;30723;51.206;3.326;2022-07-03T06:34:10;8.82;;;4.00;;
44989;SDS011;30723;51.206;3.326;2022-07-03T06:36:36;7.15;;;4.50;;
44989;SDS011;30723;51.206;3.326;2022-07-03T06:39:02;8.77;;;4.35;;
44989;SDS011;30723;51.206;3.326;2022-07-03T06:41:29;9.32;;;4.80;;
44989;SDS011;30723;51.206;3.326;2022-07-03T06:43:55;10.55;;;4.28;;
44989;SDS011;30723;51.206;3.326;2022-07-03T06:46:22;4.00;;;3.38;;
44989;SDS011;30723;51.206;3.326;2022-07-03T06:48:48;8.18;;;4.13;;
44989;SDS011;30723;51.206;3.326;2022-07-03T06:51:15;5.80;;;3.65;;
44989;SDS011;30723;51.206;3.326;2022-07-03T06:53:41;7.85;;;3.88;;
44989;SDS011;30723;51.206;3.326;2022-07-03T06:56:07;7.78;;;3.22;;
44989;SDS011;30723;51.206;3.326;2022-07-03T06:58:34;6.65;;;4.63;;
44989;SDS011;30723;51.206;3.326;2022-07-03T07:01:00;9.85;;;3.45;;
44989;SDS011;30723;51.206;3.326;2022-07-03T07:03:27;3.95;;;2.67;;
44989;SDS011;30723;51.206;3.326;2022-07-03T07:05:53;4.85;;;2.70;;
44989;SDS011;30723;51.206;3.326;2022-07-03T07:08:20;6.85;;;3.03;;
44989;SDS011;30723;51.206;3.326;2022-07-03T07:10:46;5.88;;;2.70;;
44989;SDS011;30723;51.206;3.326;2022-07-03T07:13:13;4.80;;;2.67;;
44989;SDS011;30723;51.206;3.326;2022-07-03T07:15:40;9.40;;;2.80;;
44989;SDS011;30723;51.206;3.326;2022-07-03T07:18:06;5.68;;;2.72;;
44989;SDS011;30723;51.206;3.326;2022-07-03T07:20:32;7.20;;;2.78;;
44989;SDS011;30723;51.206;3.326;2022-07-03T07:22:59;7.47;;;2.47;;
44989;SDS011;30723;51.206;3.326;2022-07-03T07:25:25;4.00;;;2.35;;
44989;SDS011;30723;51.206;3.326;2022-07-03T07:27:52;3.65;;;2.53;;
44989;SDS011;30723;51.206;3.326;2022-07-03T07:30:19;5.30;;;2.38;;
44989;SDS011;30723;51.206;3.326;2022-07-03T07:32:45;6.97;;;2.90;;
44989;SDS011;30723;51.206;3.326;2022-07-03T07:35:11;7.53;;;3.10;;
44989;SDS011;30723;51.206;3.326;2022-07-03T07:37:38;11.18;;;3.22;;
44989;SDS011;30723;51.206;3.326;2022-07-03T07:40:04;6.32;;;2.35;;
44989;SDS011;30723;51.206;3.326;2022-07-03T07:42:33;5.22;;;2.80;;
44989;SDS011;30723;51.206;3.326;2022-07-03T07:45:00;9.70;;;2.63;;
44989;SDS011;30723;51.206;3.326;2022-07-03T07:47:27;8.27;;;2.70;;
44989;SDS011;30723;51.206;3.326;2022-07-03T07:49:52;5.97;;;1.50;;
44989;SDS011;30723;51.206;3.326;2022-07-03T07:52:19;7.63;;;1.23;;
44989;SDS011;30723;51.206;3.326;2022-07-03T07:54:49;4.72;;;1.65;;
44989;SDS011;30723;51.206;3.326;2022-07-03T07:57:16;5.95;;;1.17;;
44989;SDS011;30723;51.206;3.326;2022-07-03T07:59:42;5.20;;;1.00;;
44989;SDS011;30723;51.206;3.326;2022-07-03T08:02:09;5.50;;;1.33;;
44989;SDS011;30723;51.206;3.326;2022-07-03T08:04:54;2.28;;;1.02;;
44989;SDS011;30723;51.206;3.326;2022-07-03T08:07:38;5.38;;;1.58;;
44989;SDS011;30723;51.206;3.326;2022-07-03T08:10:05;6.90;;;1.33;;
44989;SDS011;30723;51.206;3.326;2022-07-03T08:12:32;4.00;;;0.70;;
44989;SDS011;30723;51.206;3.326;2022-07-03T08:14:59;3.63;;;1.00;;
44989;SDS011;30723;51.206;3.326;2022-07-03T08:17:26;3.75;;;1.30;;
44989;SDS011;30723;51.206;3.326;2022-07-03T08:19:53;3.25;;;1.10;;
44989;SDS011;30723;51.206;3.326;2022-07-03T08:22:19;4.68;;;1.15;;
44989;SDS011;30723;51.206;3.326;2022-07-03T08:24:46;4.50;;;1.30;;
44989;SDS011;30723;51.206;3.326;2022-07-03T08:27:12;4.03;;;1.58;;
44989;SDS011;30723;51.206;3.326;2022-07-03T08:29:39;3.45;;;1.30;;
44989;SDS011;30723;51.206;3.326;2022-07-03T08:32:05;7.35;;;1.45;;
44989;SDS011;30723;51.206;3.326;2022-07-03T08:34:33;5.00;;;1.40;;
44989;SDS011;30723;51.206;3.326;2022-07-03T08:37:00;3.38;;;1.30;;
44989;SDS011;30723;51.206;3.326;2022-07-03T08:39:26;1.77;;;1.13;;
44989;SDS011;30723;51.206;3.326;2022-07-03T08:41:53;4.03;;;1.70;;
44989;SDS011;30723;51.206;3.326;2022-07-03T08:44:20;4.68;;;1.20;;
44989;SDS011;30723;51.206;3.326;2022-07-03T08:46:47;3.85;;;0.93;;
44989;SDS011;30723;51.206;3.326;2022-07-03T08:49:16;3.13;;;1.25;;
44989;SDS011;30723;51.206;3.326;2022-07-03T08:51:45;1.85;;;1.20;;
44989;SDS011;30723;51.206;3.326;2022-07-03T08:54:11;3.25;;;1.40;;
44989;SDS011;30723;51.206;3.326;2022-07-03T08:56:39;4.60;;;1.20;;
44989;SDS011;30723;51.206;3.326;2022-07-03T08:59:06;5.32;;;1.27;;
44989;SDS011;30723;51.206;3.326;2022-07-03T09:01:33;6.80;;;0.90;;
44989;SDS011;30723;51.206;3.326;2022-07-03T09:03:59;3.42;;;1.02;;
44989;SDS011;30723;51.206;3.326;2022-07-03T09:06:26;5.15;;;1.33;;
44989;SDS011;30723;51.206;3.326;2022-07-03T09:09:00;3.05;;;1.10;;
44989;SDS011;30723;51.206;3.326;2022-07-03T09:11:27;2.63;;;0.90;;
44989;SDS011;30723;51.206;3.326;2022-07-03T09:13:53;2.25;;;0.90;;
44989;SDS011;30723;51.206;3.326;2022-07-03T09:16:19;7.32;;;0.70;;
44989;SDS011;30723;51.206;3.326;2022-07-03T09:18:45;3.00;;;0.90;;
44989;SDS011;30723;51.206;3.326;2022-07-03T09:21:11;0.90;;;0.68;;
44989;SDS011;30723;51.206;3.326;2022-07-03T09:23:38;3.50;;;0.90;;
44989;SDS011;30723;51.206;3.326;2022-07-03T09:26:11;4.35;;;0.90;;
44989;SDS011;30723;51.206;3.326;2022-07-03T09:28:45;2.50;;;0.80;;
44989;SDS011;30723;51.206;3.326;2022-07-03T09:31:12;3.78;;;1.08;;
44989;SDS011;30723;51.206;3.326;2022-07-03T09:36:49;3.92;;;0.68;;
44989;SDS011;30723;51.206;3.326;2022-07-03T09:47:10;0.85;;;0.43;;
44989;SDS011;30723;51.206;3.326;2022-07-03T09:52:35;1.10;;;0.82;;
44989;SDS011;30723;51.206;3.326;2022-07-03T09:57:34;3.47;;;0.63;;
44989;SDS011;30723;51.206;3.326;2022-07-03T10:02:39;1.65;;;0.70;;
44989;SDS011;30723;51.206;3.326;2022-07-03T10:05:17;2.72;;;0.52;;
44989;SDS011;30723;51.206;3.326;2022-07-03T10:07:53;1.73;;;0.43;;
44989;SDS011;30723;51.206;3.326;2022-07-03T10:10:33;2.63;;;0.77;;
44989;SDS011;30723;51.206;3.326;2022-07-03T10:13:01;4.82;;;0.90;;
44989;SDS011;30723;51.206;3.326;2022-07-03T10:15:29;1.90;;;0.50;;
44989;SDS011;30723;51.206;3.326;2022-07-03T10:17:58;5.30;;;0.60;;
44989;SDS011;30723;51.206;3.326;2022-07-03T10:20:34;2.53;;;0.65;;
44989;SDS011;30723;51.206;3.326;2022-07-03T10:23:12;3.50;;;0.60;;
44989;SDS011;30723;51.206;3.326;2022-07-03T10:25:41;4.53;;;0.80;;
44989;SDS011;30723;51.206;3.326;2022-07-03T10:28:12;3.75;;;0.88;;
44989;SDS011;30723;51.206;3.326;2022-07-03T10:30:39;6.00;;;0.75;;
44989;SDS011;30723;51.206;3.326;2022-07-03T10:33:11;2.40;;;1.02;;
44989;SDS011;30723;51.206;3.326;2022-07-03T10:35:43;1.40;;;0.60;;
44989;SDS011;30723;51.206;3.326;2022-07-03T10:43:56;3.25;;;0.77;;
44989;SDS011;30723;51.206;3.326;2022-07-03T10:46:41;3.15;;;0.65;;
44989;SDS011;30723;51.206;3.326;2022-07-03T10:49:09;4.65;;;0.73;;
44989;SDS011;30723;51.206;3.326;2022-07-03T11:15:47;0.70;;;0.43;;
44989;SDS011;30723;51.206;3.326;2022-07-03T11:18:53;0.47;;;0.47;;
44989;SDS011;30723;51.206;3.326;2022-07-03T11:21:29;1.42;;;0.50;;
44989;SDS011;30723;51.206;3.326;2022-07-03T11:26:39;3.95;;;0.60;;
44989;SDS011;30723;51.206;3.326;2022-07-03T11:29:05;1.80;;;0.60;;
44989;SDS011;30723;51.206;3.326;2022-07-03T11:31:50;2.92;;;0.40;;
44989;SDS011;30723;51.206;3.326;2022-07-03T11:34:20;2.17;;;0.50;;
44989;SDS011;30723;51.206;3.326;2022-07-03T11:36:46;2.30;;;0.77;;
44989;SDS011;30723;51.206;3.326;2022-07-03T11:39:13;0.90;;;0.30;;
44989;SDS011;30723;51.206;3.326;2022-07-03T11:41:44;2.25;;;0.60;;
44989;SDS011;30723;51.206;3.326;2022-07-03T11:44:15;0.88;;;0.40;;
44989;SDS011;30723;51.206;3.326;2022-07-03T11:46:45;4.90;;;0.40;;
44989;SDS011;30723;51.206;3.326;2022-07-03T11:49:15;4.75;;;0.43;;
44989;SDS011;30723;51.206;3.326;2022-07-03T11:51:55;1.02;;;0.38;;
44989;SDS011;30723;51.206;3.326;2022-07-03T11:54:26;2.75;;;0.40;;
44989;SDS011;30723;51.206;3.326;2022-07-03T11:57:15;6.75;;;0.60;;
44989;SDS011;30723;51.206;3.326;2022-07-03T11:59:41;3.00;;;0.50;;
44989;SDS011;30723;51.206;3.326;2022-07-03T12:02:08;5.25;;;0.73;;
44989;SDS011;30723;51.206;3.326;2022-07-03T12:04:34;2.97;;;0.55;;
44989;SDS011;30723;51.206;3.326;2022-07-03T12:07:03;4.13;;;0.47;;
44989;SDS011;30723;51.206;3.326;2022-07-03T12:09:29;0.80;;;0.15;;
44989;SDS011;30723;51.206;3.326;2022-07-03T12:14:39;1.63;;;0.30;;
44989;SDS011;30723;51.206;3.326;2022-07-03T12:17:22;2.80;;;0.40;;
44989;SDS011;30723;51.206;3.326;2022-07-03T12:22:30;2.27;;;0.33;;
44989;SDS011;30723;51.206;3.326;2022-07-03T12:25:07;3.45;;;0.38;;
44989;SDS011;30723;51.206;3.326;2022-07-03T12:27:41;3.53;;;0.70;;
44989;SDS011;30723;51.206;3.326;2022-07-03T12:30:23;3.72;;;0.50;;
44989;SDS011;30723;51.206;3.326;2022-07-03T12:32:52;3.97;;;1.00;;
44989;SDS011;30723;51.206;3.326;2022-07-03T12:35:23;1.77;;;0.50;;
44989;SDS011;30723;51.206;3.326;2022-07-03T12:37:50;2.45;;;0.47;;
44989;SDS011;30723;51.206;3.326;2022-07-03T12:40:17;3.88;;;0.47;;
44989;SDS011;30723;51.206;3.326;2022-07-03T12:42:49;1.70;;;0.57;;
44989;SDS011;30723;51.206;3.326;2022-07-03T12:45:20;3.60;;;1.00;;
44989;SDS011;30723;51.206;3.326;2022-07-03T12:47:58;3.67;;;0.70;;
44989;SDS011;30723;51.206;3.326;2022-07-03T12:55:52;1.48;;;0.40;;
44989;SDS011;30723;51.206;3.326;2022-07-03T12:58:21;4.60;;;0.40;;
44989;SDS011;30723;51.206;3.326;2022-07-03T13:01:22;1.92;;;0.40;;
44989;SDS011;30723;51.206;3.326;2022-07-03T13:03:51;2.33;;;0.45;;
44989;SDS011;30723;51.206;3.326;2022-07-03T13:06:17;3.35;;;0.50;;
44989;SDS011;30723;51.206;3.326;2022-07-03T13:08:53;4.07;;;0.50;;
44989;SDS011;30723;51.206;3.326;2022-07-03T13:11:39;1.85;;;0.60;;
44989;SDS011;30723;51.206;3.326;2022-07-03T13:14:21;3.70;;;0.68;;
44989;SDS011;30723;51.206;3.326;2022-07-03T13:16:50;1.33;;;0.40;;
44989;SDS011;30723;51.206;3.326;2022-07-03T13:19:19;1.15;;;0.60;;
44989;SDS011;30723;51.206;3.326;2022-07-03T13:21:47;2.25;;;0.38;;
44989;SDS011;30723;51.206;3.326;2022-07-03T13:24:16;4.53;;;0.60;;
44989;SDS011;30723;51.206;3.326;2022-07-03T13:26:44;3.63;;;0.85;;
44989;SDS011;30723;51.206;3.326;2022-07-03T13:29:13;4.13;;;0.63;;
44989;SDS011;30723;51.206;3.326;2022-07-03T13:31:40;4.35;;;0.70;;
44989;SDS011;30723;51.206;3.326;2022-07-03T13:34:06;1.00;;;0.40;;
44989;SDS011;30723;51.206;3.326;2022-07-03T13:36:32;1.88;;;0.57;;
44989;SDS011;30723;51.206;3.326;2022-07-03T13:38:58;1.90;;;0.60;;
44989;SDS011;30723;51.206;3.326;2022-07-03T13:41:25;2.47;;;0.55;;
44989;SDS011;30723;51.206;3.326;2022-07-03T13:43:52;3.78;;;0.50;;
44989;SDS011;30723;51.206;3.326;2022-07-03T13:46:19;4.40;;;0.80;;
44989;SDS011;30723;51.206;3.326;2022-07-03T13:48:46;3.78;;;0.60;;
44989;SDS011;30723;51.206;3.326;2022-07-03T13:51:13;2.90;;;0.93;;
44989;SDS011;30723;51.206;3.326;2022-07-03T13:53:39;3.67;;;0.75;;
44989;SDS011;30723;51.206;3.326;2022-07-03T13:56:06;3.58;;;0.68;;
44989;SDS011;30723;51.206;3.326;2022-07-03T13:58:33;6.22;;;0.80;;
44989;SDS011;30723;51.206;3.326;2022-07-03T14:00:59;2.38;;;0.70;;
44989;SDS011;30723;51.206;3.326;2022-07-03T14:03:26;3.20;;;0.52;;
44989;SDS011;30723;51.206;3.326;2022-07-03T14:05:53;2.00;;;0.55;;
44989;SDS011;30723;51.206;3.326;2022-07-03T14:08:21;3.40;;;0.60;;
44989;SDS011;30723;51.206;3.326;2022-07-03T14:10:48;1.35;;;0.40;;
44989;SDS011;30723;51.206;3.326;2022-07-03T14:13:14;2.22;;;0.50;;
44989;SDS011;30723;51.206;3.326;2022-07-03T14:15:41;2.25;;;0.57;;
44989;SDS011;30723;51.206;3.326;2022-07-03T14:18:07;1.38;;;0.50;;
44989;SDS011;30723;51.206;3.326;2022-07-03T14:20:34;1.77;;;0.57;;
44989;SDS011;30723;51.206;3.326;2022-07-03T14:23:01;3.92;;;0.90;;
44989;SDS011;30723;51.206;3.326;2022-07-03T14:25:28;2.35;;;0.73;;
44989;SDS011;30723;51.206;3.326;2022-07-03T14:27:54;2.28;;;0.38;;
44989;SDS011;30723;51.206;3.326;2022-07-03T14:30:39;2.28;;;0.60;;
44989;SDS011;30723;51.206;3.326;2022-07-03T14:33:23;3.83;;;0.55;;
44989;SDS011;30723;51.206;3.326;2022-07-03T14:35:50;2.78;;;0.60;;
44989;SDS011;30723;51.206;3.326;2022-07-03T14:38:17;5.05;;;0.77;;
44989;SDS011;30723;51.206;3.326;2022-07-03T14:40:44;5.93;;;1.10;;
44989;SDS011;30723;51.206;3.326;2022-07-03T14:43:10;3.30;;;0.60;;
44989;SDS011;30723;51.206;3.326;2022-07-03T14:45:36;4.03;;;0.63;;
44989;SDS011;30723;51.206;3.326;2022-07-03T14:48:02;3.72;;;0.60;;
44989;SDS011;30723;51.206;3.326;2022-07-03T14:50:30;1.65;;;0.50;;
44989;SDS011;30723;51.206;3.326;2022-07-03T14:52:56;3.55;;;1.00;;
44989;SDS011;30723;51.206;3.326;2022-07-03T14:55:27;6.57;;;0.90;;
44989;SDS011;30723;51.206;3.326;2022-07-03T15:00:33;1.92;;;0.68;;
44989;SDS011;30723;51.206;3.326;2022-07-03T15:03:05;5.80;;;0.90;;
44989;SDS011;30723;51.206;3.326;2022-07-03T15:05:45;4.22;;;0.90;;
44989;SDS011;30723;51.206;3.326;2022-07-03T15:10:49;5.22;;;0.57;;
44989;SDS011;30723;51.206;3.326;2022-07-03T15:13:17;3.92;;;0.82;;
44989;SDS011;30723;51.206;3.326;2022-07-03T15:15:45;2.05;;;0.60;;
44989;SDS011;30723;51.206;3.326;2022-07-03T15:18:19;2.92;;;0.90;;
44989;SDS011;30723;51.206;3.326;2022-07-03T15:20:53;4.78;;;1.00;;
44989;SDS011;30723;51.206;3.326;2022-07-03T15:23:22;5.45;;;0.98;;
44989;SDS011;30723;51.206;3.326;2022-07-03T15:25:50;3.97;;;0.73;;
44989;SDS011;30723;51.206;3.326;2022-07-03T15:28:17;7.10;;;1.00;;
44989;SDS011;30723;51.206;3.326;2022-07-03T15:30:47;4.57;;;0.85;;
44989;SDS011;30723;51.206;3.326;2022-07-03T15:33:15;3.42;;;1.35;;
44989;SDS011;30723;51.206;3.326;2022-07-03T15:35:49;4.22;;;0.80;;
44989;SDS011;30723;51.206;3.326;2022-07-03T15:38:21;4.20;;;0.88;;
44989;SDS011;30723;51.206;3.326;2022-07-03T15:41:08;3.80;;;0.60;;
44989;SDS011;30723;51.206;3.326;2022-07-03T15:49:41;4.57;;;0.77;;
44989;SDS011;30723;51.206;3.326;2022-07-03T15:57:26;5.80;;;1.05;;
44989;SDS011;30723;51.206;3.326;2022-07-03T16:00:17;2.17;;;0.63;;
44989;SDS011;30723;51.206;3.326;2022-07-03T16:05:36;3.95;;;0.77;;
44989;SDS011;30723;51.206;3.326;2022-07-03T16:08:05;1.25;;;0.50;;
44989;SDS011;30723;51.206;3.326;2022-07-03T16:10:37;5.00;;;1.70;;
44989;SDS011;30723;51.206;3.326;2022-07-03T16:13:04;2.65;;;0.80;;
44989;SDS011;30723;51.206;3.326;2022-07-03T16:15:36;3.88;;;1.00;;
44989;SDS011;30723;51.206;3.326;2022-07-03T16:18:04;2.40;;;0.75;;
44989;SDS011;30723;51.206;3.326;2022-07-03T16:20:32;8.40;;;0.60;;
44989;SDS011;30723;51.206;3.326;2022-07-03T16:23:00;2.42;;;0.85;;
44989;SDS011;30723;51.206;3.326;2022-07-03T16:25:29;4.80;;;0.60;;
44989;SDS011;30723;51.206;3.326;2022-07-03T16:27:58;4.57;;;0.95;;
44989;SDS011;30723;51.206;3.326;2022-07-03T16:30:27;2.83;;;1.00;;
44989;SDS011;30723;51.206;3.326;2022-07-03T16:32:55;13.07;;;1.95;;
44989;SDS011;30723;51.206;3.326;2022-07-03T16:35:30;6.35;;;1.13;;
44989;SDS011;30723;51.206;3.326;2022-07-03T16:38:08;6.50;;;1.00;;
44989;SDS011;30723;51.206;3.326;2022-07-03T16:40:38;7.63;;;0.98;;
44989;SDS011;30723;51.206;3.326;2022-07-03T16:43:06;5.60;;;1.08;;
44989;SDS011;30723;51.206;3.326;2022-07-03T16:45:36;5.33;;;1.27;;
44989;SDS011;30723;51.206;3.326;2022-07-03T16:50:47;5.57;;;0.80;;
44989;SDS011;30723;51.206;3.326;2022-07-03T16:53:27;3.10;;;0.90;;
44989;SDS011;30723;51.206;3.326;2022-07-03T16:55:54;1.90;;;0.60;;
44989;SDS011;30723;51.206;3.326;2022-07-03T16:58:22;7.13;;;1.05;;
44989;SDS011;30723;51.206;3.326;2022-07-03T17:00:49;1.63;;;0.50;;
44989;SDS011;30723;51.206;3.326;2022-07-03T17:03:17;2.80;;;0.98;;
44989;SDS011;30723;51.206;3.326;2022-07-03T17:05:45;3.58;;;0.70;;